createdAt,value
2022-09-20T00:02:14.087Z,11.09
2022-09-20T00:04:44.657Z,11.09
2022-09-20T00:07:15.138Z,11.17
2022-09-20T00:09:45.637Z,11.18
2022-09-20T00:12:16.190Z,11.22
2022-09-20T00:14:46.747Z,11.31
2022-09-20T00:17:17.215Z,11.34
2022-09-20T00:19:47.697Z,11.44
2022-09-20T00:22:18.221Z,11.55
2022-09-20T00:24:49.159Z,11.62
2022-09-20T00:27:19.241Z,11.72
2022-09-20T00:29:49.729Z,11.78
2022-09-20T00:32:20.233Z,11.78
2022-09-20T00:34:50.711Z,11.79
2022-09-20T00:37:21.217Z,11.74
2022-09-20T00:39:51.716Z,11.69
2022-09-20T00:42:22.237Z,11.67
2022-09-20T00:44:52.744Z,11.73
2022-09-20T00:47:23.319Z,11.77
2022-09-20T00:49:53.744Z,11.77
2022-09-20T00:52:24.269Z,11.76
2022-09-20T00:54:54.751Z,11.79
2022-09-20T00:57:25.324Z,11.78
2022-09-20T00:59:55.863Z,11.75
2022-09-20T01:02:26.324Z,11.69
2022-09-20T01:04:56.798Z,11.65
2022-09-20T01:07:27.357Z,11.63
2022-09-20T01:09:57.804Z,11.61
2022-09-20T01:12:28.351Z,11.61
2022-09-20T01:14:58.807Z,11.61
2022-09-20T01:17:29.325Z,11.62
2022-09-20T01:19:59.835Z,11.65
2022-09-20T01:22:30.339Z,11.68
2022-09-20T01:25:00.847Z,11.69
2022-09-20T01:27:31.388Z,11.71
2022-09-20T01:30:01.835Z,11.70
2022-09-20T01:32:32.354Z,11.66
2022-09-20T01:35:02.839Z,11.63
2022-09-20T01:37:33.340Z,11.54
2022-09-20T01:40:03.975Z,11.50
2022-09-20T01:42:34.384Z,11.52
2022-09-20T01:45:04.840Z,11.50
2022-09-20T01:47:35.399Z,11.49
2022-09-20T01:50:05.849Z,11.48
2022-09-20T01:52:36.370Z,11.46
2022-09-20T01:55:06.998Z,11.44
2022-09-20T01:57:37.422Z,11.41
2022-09-20T02:00:07.906Z,11.37
2022-09-20T02:02:38.462Z,11.31
2022-09-20T02:05:09.012Z,11.25
2022-09-20T02:07:39.549Z,11.21
2022-09-20T02:10:09.959Z,11.17
2022-09-20T02:12:40.622Z,11.12
2022-09-20T02:15:11.030Z,11.12
2022-09-20T02:17:41.661Z,11.11
2022-09-20T02:20:12.057Z,11.09
2022-09-20T02:22:43.299Z,11.10
2022-09-20T02:25:13.141Z,11.08
2022-09-20T02:27:43.686Z,11.05
2022-09-20T02:30:14.183Z,11.02
2022-09-20T02:32:44.859Z,10.96
2022-09-20T02:35:15.267Z,10.92
2022-09-20T02:37:45.828Z,10.91
2022-09-20T02:40:16.418Z,10.89
2022-09-20T02:42:46.932Z,10.85
2022-09-20T02:45:17.430Z,10.82
2022-09-20T02:47:47.984Z,10.76
2022-09-20T02:50:18.530Z,10.70
2022-09-20T02:52:49.104Z,10.65
2022-09-20T02:55:19.637Z,10.62
2022-09-20T02:57:50.210Z,10.59
2022-09-20T03:00:20.702Z,10.56
2022-09-20T03:02:51.291Z,10.53
2022-09-20T03:05:21.829Z,10.50
2022-09-20T03:07:52.453Z,10.48
2022-09-20T03:10:22.910Z,10.43
2022-09-20T03:12:53.490Z,10.41
2022-09-20T03:15:24.015Z,10.39
2022-09-20T03:17:54.575Z,10.39
2022-09-20T03:20:25.110Z,10.36
2022-09-20T03:22:55.695Z,10.33
2022-09-20T03:25:26.223Z,10.28
2022-09-20T03:27:56.807Z,10.28
2022-09-20T03:30:27.330Z,10.25
2022-09-20T03:32:57.910Z,10.23
2022-09-20T03:35:28.462Z,10.23
2022-09-20T03:37:59.108Z,10.20
2022-09-20T03:40:29.700Z,10.17
2022-09-20T03:43:00.182Z,10.13
2022-09-20T03:45:30.729Z,10.14
2022-09-20T03:48:01.301Z,10.13
2022-09-20T03:50:31.851Z,10.08
2022-09-20T03:53:02.450Z,10.07
2022-09-20T03:55:32.996Z,10.07
2022-09-20T03:58:08.080Z,10.00
2022-09-20T04:00:34.233Z,9.94
2022-09-20T04:03:04.741Z,9.89
2022-09-20T04:05:35.327Z,9.91
2022-09-20T04:08:05.887Z,9.93
2022-09-20T04:10:36.427Z,9.95
2022-09-20T04:13:07.037Z,9.96
2022-09-20T04:15:37.590Z,10.00
2022-09-20T04:18:08.292Z,9.98
2022-09-20T04:20:38.734Z,9.99
2022-09-20T04:23:09.361Z,9.98
2022-09-20T04:25:43.636Z,9.97
2022-09-20T04:28:10.197Z,9.98
2022-09-20T04:30:40.724Z,10.00
2022-09-20T04:33:11.295Z,10.01
2022-09-20T04:35:41.853Z,10.04
2022-09-20T04:38:12.521Z,10.05
2022-09-20T04:40:43.108Z,10.09
2022-09-20T04:43:13.607Z,10.09
2022-09-20T04:45:44.337Z,10.12
2022-09-20T04:48:14.737Z,10.14
2022-09-20T04:50:45.287Z,10.16
2022-09-20T04:53:15.857Z,10.13
2022-09-20T04:55:46.406Z,10.13
2022-09-20T04:58:17.018Z,10.11
2022-09-20T05:00:47.572Z,10.07
2022-09-20T05:03:18.146Z,10.04
2022-09-20T05:05:48.748Z,10.02
2022-09-20T05:08:19.244Z,10.01
2022-09-20T05:10:49.789Z,10.03
2022-09-20T05:13:20.430Z,10.05
2022-09-20T05:15:50.927Z,10.02
2022-09-20T05:18:21.521Z,10.03
2022-09-20T05:20:52.062Z,10.00
2022-09-20T05:23:22.650Z,9.99
2022-09-20T05:25:53.397Z,9.98
2022-09-20T05:28:23.841Z,9.98
2022-09-20T05:30:54.387Z,9.93
2022-09-20T05:33:24.959Z,9.88
2022-09-20T05:35:55.631Z,9.84
2022-09-20T05:38:26.229Z,9.79
2022-09-20T05:40:56.685Z,9.79
2022-09-20T05:43:27.293Z,9.78
2022-09-20T05:45:57.872Z,9.77
2022-09-20T05:48:28.457Z,9.78
2022-09-20T05:51:03.529Z,9.80
2022-09-20T05:53:29.740Z,9.85
2022-09-20T05:56:00.143Z,9.83
2022-09-20T05:58:30.413Z,9.83
2022-09-20T06:01:01.002Z,9.85
2022-09-20T06:03:31.656Z,9.85
2022-09-20T06:06:02.112Z,9.82
2022-09-20T06:08:32.681Z,9.82
2022-09-20T06:11:03.265Z,9.82
2022-09-20T06:13:33.861Z,9.84
2022-09-20T06:16:04.411Z,9.87
2022-09-20T06:18:35.016Z,9.83
2022-09-20T06:21:05.570Z,9.79
2022-09-20T06:23:36.166Z,9.84
2022-09-20T06:26:06.720Z,9.93
2022-09-20T06:28:39.989Z,10.00
2022-09-20T06:31:07.904Z,10.06
2022-09-20T06:33:38.396Z,10.08
2022-09-20T06:36:08.993Z,10.12
2022-09-20T06:38:39.247Z,10.15
2022-09-20T06:41:09.793Z,10.22
2022-09-20T06:43:40.418Z,10.27
2022-09-20T06:46:10.938Z,10.37
2022-09-20T06:48:41.455Z,10.44
2022-09-20T06:51:12.011Z,10.51
2022-09-20T06:53:42.663Z,10.59
2022-09-20T06:56:13.113Z,10.61
2022-09-20T06:58:43.668Z,10.69
2022-09-20T07:01:14.279Z,10.71
2022-09-20T07:03:44.712Z,10.71
2022-09-20T07:06:15.268Z,10.69
2022-09-20T07:08:45.822Z,10.66
2022-09-20T07:11:16.468Z,10.73
2022-09-20T07:13:46.921Z,10.72
2022-09-20T07:16:17.472Z,10.72
2022-09-20T07:18:47.982Z,10.78
2022-09-20T07:21:18.537Z,10.84
2022-09-20T07:23:49.072Z,10.91
2022-09-20T07:26:19.608Z,10.98
2022-09-20T07:28:50.150Z,11.11
2022-09-20T07:31:20.741Z,11.12
2022-09-20T07:33:51.201Z,11.11
2022-09-20T07:36:21.461Z,11.19
2022-09-20T07:38:51.994Z,11.34
2022-09-20T07:41:22.523Z,11.44
2022-09-20T07:43:53.043Z,11.48
2022-09-20T07:46:23.549Z,11.56
2022-09-20T07:48:54.124Z,11.49
2022-09-20T07:51:24.622Z,11.60
2022-09-20T07:53:55.205Z,11.72
2022-09-20T07:56:25.584Z,11.81
2022-09-20T07:58:56.090Z,11.81
2022-09-20T08:01:26.613Z,11.79
2022-09-20T08:03:57.052Z,11.86
2022-09-20T08:06:27.556Z,11.90
2022-09-20T08:08:58.124Z,11.97
2022-09-20T08:11:28.526Z,12.03
2022-09-20T08:14:07.719Z,12.11
2022-09-20T08:16:29.554Z,11.85
2022-09-20T08:18:59.970Z,11.95
2022-09-20T08:21:30.451Z,12.17
2022-09-20T08:24:01.007Z,12.14
2022-09-20T08:26:31.541Z,12.21
2022-09-20T08:29:01.911Z,12.31
2022-09-20T08:31:32.405Z,12.34
2022-09-20T08:34:02.842Z,12.11
2022-09-20T08:36:36.467Z,12.25
2022-09-20T08:41:34.204Z,12.45
2022-09-20T08:44:04.858Z,12.37
2022-09-20T08:46:35.500Z,12.51
2022-09-20T08:49:10.615Z,12.50
2022-09-20T08:51:36.071Z,12.40
2022-09-20T08:54:06.590Z,12.56
2022-09-20T08:56:37.111Z,12.81
2022-09-20T08:59:07.816Z,12.91
2022-09-20T09:01:38.205Z,12.97
2022-09-20T09:04:08.886Z,12.93
2022-09-20T09:06:39.134Z,12.95
2022-09-20T09:09:09.604Z,13.05
2022-09-20T09:11:45.854Z,13.19
2022-09-20T09:14:10.451Z,13.23
2022-09-20T09:16:40.902Z,13.28
2022-09-20T09:19:11.415Z,13.35
2022-09-20T09:21:41.732Z,13.34
2022-09-20T09:24:12.150Z,13.40
2022-09-20T09:26:42.596Z,13.51
2022-09-20T09:29:13.172Z,13.59
2022-09-20T09:31:43.477Z,13.64
2022-09-20T09:34:13.860Z,13.71
2022-09-20T09:36:44.292Z,13.76
2022-09-20T09:39:14.724Z,13.84
2022-09-20T09:41:44.810Z,13.91
2022-09-20T09:44:15.290Z,13.96
2022-09-20T09:46:45.849Z,13.92
2022-09-20T09:49:16.385Z,13.79
2022-09-20T09:51:46.612Z,13.74
2022-09-20T09:54:17.172Z,13.61
2022-09-20T09:56:47.605Z,13.83
2022-09-20T09:59:18.026Z,13.89
2022-09-20T10:01:48.810Z,14.16
2022-09-20T10:04:19.062Z,14.20
2022-09-20T10:06:52.208Z,14.29
2022-09-20T10:09:19.967Z,14.35
2022-09-20T10:11:50.255Z,14.01
2022-09-20T10:14:20.712Z,14.02
2022-09-20T10:16:51.151Z,14.16
2022-09-20T10:19:22.817Z,14.19
2022-09-20T10:21:51.883Z,14.37
2022-09-20T10:24:22.291Z,14.46
2022-09-20T10:26:52.689Z,14.45
2022-09-20T10:29:23.180Z,14.28
2022-09-20T10:31:53.435Z,14.22
2022-09-20T10:34:23.841Z,14.16
2022-09-20T10:36:54.238Z,14.12
2022-09-20T10:39:24.653Z,14.29
2022-09-20T10:41:55.072Z,14.33
2022-09-20T10:44:25.463Z,14.39
2022-09-20T10:46:55.914Z,14.57
2022-09-20T10:49:26.221Z,14.63
2022-09-20T10:51:56.653Z,14.69
2022-09-20T10:54:27.001Z,14.75
2022-09-20T10:56:57.380Z,14.67
2022-09-20T10:59:27.891Z,14.59
2022-09-20T11:01:58.263Z,14.60
2022-09-20T11:04:28.534Z,14.72
2022-09-20T11:06:58.947Z,14.73
2022-09-20T11:09:29.380Z,14.70
2022-09-20T11:11:59.657Z,14.78
2022-09-20T11:14:30.077Z,14.73
2022-09-20T11:17:00.565Z,14.82
2022-09-20T11:19:30.886Z,14.74
2022-09-20T11:22:01.129Z,14.84
2022-09-20T11:24:31.550Z,14.83
2022-09-20T11:27:01.964Z,14.84
2022-09-20T11:29:32.301Z,14.89
2022-09-20T11:32:02.714Z,14.75
2022-09-20T11:34:33.000Z,14.94
2022-09-20T11:37:03.490Z,14.99
2022-09-20T11:39:33.745Z,15.25
2022-09-20T11:42:04.167Z,15.32
2022-09-20T11:44:34.486Z,15.36
2022-09-20T11:47:04.968Z,15.34
2022-09-20T11:49:35.191Z,15.55
2022-09-20T11:52:05.551Z,15.64
2022-09-20T11:54:35.899Z,15.66
2022-09-20T11:57:06.255Z,15.52
2022-09-20T11:59:36.710Z,14.97
2022-09-20T12:02:07.098Z,14.78
2022-09-20T12:04:37.753Z,14.57
2022-09-20T12:07:10.613Z,14.41
2022-09-20T12:09:38.133Z,14.16
2022-09-20T12:12:08.506Z,13.98
2022-09-20T12:14:38.892Z,13.91
2022-09-20T12:17:09.306Z,13.78
2022-09-20T12:19:39.741Z,13.75
2022-09-20T12:22:10.331Z,13.89
2022-09-20T12:24:45.113Z,13.90
2022-09-20T12:27:11.082Z,14.00
2022-09-20T12:29:41.527Z,14.16
2022-09-20T12:32:12.054Z,14.18
2022-09-20T12:34:42.464Z,14.20
2022-09-20T12:37:12.868Z,14.26
2022-09-20T12:39:43.315Z,14.29
2022-09-20T12:44:44.166Z,14.35
2022-09-20T12:47:14.599Z,14.49
2022-09-20T12:49:44.970Z,14.58
2022-09-20T12:52:15.382Z,14.69
2022-09-20T12:54:45.849Z,14.78
2022-09-20T12:57:16.222Z,14.88
2022-09-20T12:59:46.630Z,14.90
2022-09-20T13:02:17.182Z,14.86
2022-09-20T13:04:47.454Z,14.88
2022-09-20T13:07:17.857Z,15.01
2022-09-20T13:09:48.213Z,15.08
2022-09-20T13:12:18.592Z,15.05
2022-09-20T13:14:48.988Z,15.10
2022-09-20T13:17:19.428Z,15.15
2022-09-20T13:19:49.741Z,15.15
2022-09-20T13:22:20.232Z,15.27
2022-09-20T13:24:50.644Z,15.40
2022-09-20T13:27:20.862Z,15.58
2022-09-20T13:29:51.218Z,15.71
2022-09-20T13:32:21.545Z,15.67
2022-09-20T13:34:52.012Z,15.60
2022-09-20T13:37:22.273Z,15.58
2022-09-20T13:39:52.585Z,15.60
2022-09-20T13:42:23.011Z,15.55
2022-09-20T13:44:53.320Z,15.54
2022-09-20T13:47:23.692Z,15.58
2022-09-20T13:49:54.167Z,15.59
2022-09-20T13:52:24.357Z,15.61
2022-09-20T13:54:54.753Z,15.35
2022-09-20T13:57:25.089Z,15.37
2022-09-20T13:59:55.443Z,15.45
2022-09-20T14:02:25.785Z,15.48
2022-09-20T14:04:56.180Z,15.47
2022-09-20T14:07:26.533Z,15.39
2022-09-20T14:09:57.002Z,15.43
2022-09-20T14:12:27.214Z,15.55
2022-09-20T14:14:57.587Z,15.48
2022-09-20T14:17:27.954Z,15.58
2022-09-20T14:19:58.463Z,15.59
2022-09-20T14:22:28.668Z,15.64
2022-09-20T14:24:59.051Z,15.58
2022-09-20T14:27:29.371Z,15.64
2022-09-20T14:29:59.722Z,15.68
2022-09-20T14:32:30.134Z,15.63
2022-09-20T14:35:00.464Z,15.69
2022-09-20T14:37:30.822Z,15.70
2022-09-20T14:40:01.261Z,15.72
2022-09-20T14:42:31.464Z,15.78
2022-09-20T14:45:01.838Z,15.84
2022-09-20T14:47:32.159Z,15.92
2022-09-20T14:50:02.504Z,15.99
2022-09-20T14:52:32.840Z,16.02
2022-09-20T14:55:03.167Z,16.04
2022-09-20T14:57:33.503Z,15.94
2022-09-20T15:00:03.942Z,15.91
2022-09-20T15:02:34.251Z,15.84
2022-09-20T15:05:04.552Z,15.79
2022-09-20T15:07:34.895Z,15.71
2022-09-20T15:10:05.320Z,15.74
2022-09-20T15:12:35.639Z,15.67
2022-09-20T15:15:06.035Z,15.70
2022-09-20T15:17:36.395Z,15.76
2022-09-20T15:20:06.743Z,15.82
2022-09-20T15:22:37.124Z,15.85
2022-09-20T15:25:07.594Z,15.84
2022-09-20T15:27:37.883Z,15.86
2022-09-20T15:30:08.253Z,15.88
2022-09-20T15:32:38.614Z,15.84
2022-09-20T15:35:09.095Z,15.75
2022-09-20T15:37:39.345Z,15.79
2022-09-20T15:40:09.737Z,15.84
2022-09-20T15:42:40.070Z,15.89
2022-09-20T15:45:10.449Z,15.85
2022-09-20T15:47:40.795Z,15.87
2022-09-20T15:50:11.168Z,15.91
2022-09-20T15:52:41.667Z,15.93
2022-09-20T15:55:11.913Z,15.99
2022-09-20T15:57:42.278Z,16.00
2022-09-20T16:00:12.638Z,15.95
2022-09-20T16:02:42.999Z,16.00
2022-09-20T16:05:13.347Z,16.04
2022-09-20T16:07:43.716Z,16.04
2022-09-20T16:10:14.088Z,16.06
2022-09-20T16:12:44.440Z,16.08
2022-09-20T16:15:14.801Z,16.07
2022-09-20T16:17:45.131Z,16.00
2022-09-20T16:20:15.474Z,15.85
2022-09-20T16:22:45.830Z,15.65
2022-09-20T16:25:15.938Z,15.42
2022-09-20T16:27:46.318Z,15.33
2022-09-20T16:30:16.722Z,15.24
2022-09-20T16:32:47.098Z,15.22
2022-09-20T16:35:17.489Z,15.26
2022-09-20T16:37:47.856Z,15.31
2022-09-20T16:40:18.327Z,15.22
2022-09-20T16:42:52.214Z,15.28
2022-09-20T16:45:18.712Z,15.29
2022-09-20T16:47:49.064Z,15.34
2022-09-20T16:50:19.431Z,15.40
2022-09-20T16:52:49.805Z,15.39
2022-09-20T16:55:20.173Z,15.13
2022-09-20T16:57:50.532Z,14.89
2022-09-20T17:00:20.918Z,14.71
2022-09-20T17:02:51.377Z,14.74
2022-09-20T17:05:21.653Z,14.77
2022-09-20T17:07:52.026Z,14.81
2022-09-20T17:10:22.400Z,14.87
2022-09-20T17:12:52.800Z,14.86
2022-09-20T17:15:23.215Z,14.89
2022-09-20T17:17:53.622Z,14.88
2022-09-20T17:20:23.977Z,14.81
2022-09-20T17:22:54.362Z,14.80
2022-09-20T17:25:24.750Z,14.80
2022-09-20T17:27:55.150Z,14.81
2022-09-20T17:30:25.565Z,14.80
2022-09-20T17:32:55.920Z,14.68
2022-09-20T17:35:26.290Z,14.69
2022-09-20T17:37:56.704Z,14.66
2022-09-20T17:40:27.238Z,14.60
2022-09-20T17:42:57.487Z,14.53
2022-09-20T17:45:27.903Z,14.52
2022-09-20T17:47:58.290Z,14.54
2022-09-20T17:50:28.705Z,14.53
2022-09-20T17:52:59.101Z,14.53
2022-09-20T17:55:29.500Z,14.51
2022-09-20T17:57:59.892Z,14.51
2022-09-20T18:00:30.371Z,14.48
2022-09-20T18:03:04.740Z,14.47
2022-09-20T18:05:31.093Z,14.44
2022-09-20T18:08:01.495Z,14.43
2022-09-20T18:10:31.908Z,14.40
2022-09-20T18:13:02.304Z,14.40
2022-09-20T18:15:32.740Z,14.41
2022-09-20T18:18:03.137Z,14.41
2022-09-20T18:20:33.533Z,14.40
2022-09-20T18:23:03.929Z,14.39
2022-09-20T18:25:34.347Z,14.38
2022-09-20T18:28:04.736Z,14.34
2022-09-20T18:30:35.180Z,14.29
2022-09-20T18:33:05.612Z,14.23
2022-09-20T18:35:36.013Z,14.15
2022-09-20T18:38:06.702Z,14.08
2022-09-20T18:40:37.460Z,14.01
2022-09-20T18:43:07.844Z,13.92
2022-09-20T18:45:38.377Z,13.84
2022-09-20T18:48:08.732Z,13.76
2022-09-20T18:50:39.186Z,13.66
2022-09-20T18:53:09.637Z,13.55
2022-09-20T18:55:40.184Z,13.47
2022-09-20T18:58:10.491Z,13.41
2022-09-20T19:00:41.043Z,13.36
2022-09-20T19:03:11.387Z,13.30
2022-09-20T19:05:41.867Z,13.26
2022-09-20T19:08:12.337Z,13.19
2022-09-20T19:10:42.828Z,13.13
2022-09-20T19:13:13.304Z,13.08
2022-09-20T19:15:43.823Z,13.02
2022-09-20T19:18:14.289Z,12.96
2022-09-20T19:20:44.836Z,12.90
2022-09-20T19:23:15.370Z,12.81
2022-09-20T19:25:46.123Z,12.74
2022-09-20T19:28:16.724Z,12.66
2022-09-20T19:30:47.434Z,12.63
2022-09-20T19:33:18.023Z,12.59
2022-09-20T19:35:49.628Z,12.55
2022-09-20T19:38:19.159Z,12.53
2022-09-20T19:40:49.688Z,12.52
2022-09-20T19:43:20.187Z,12.54
2022-09-20T19:45:50.779Z,12.53
2022-09-20T19:48:21.162Z,12.52
2022-09-20T19:50:51.678Z,12.49
2022-09-20T19:53:22.167Z,12.50
2022-09-20T19:55:52.665Z,12.49
2022-09-20T19:58:23.206Z,12.46
2022-09-20T20:00:53.659Z,12.47
2022-09-20T20:03:24.143Z,12.48
2022-09-20T20:05:54.634Z,12.41
2022-09-20T20:08:25.236Z,12.33
2022-09-20T20:10:55.634Z,12.28
2022-09-20T20:13:26.149Z,12.19
2022-09-20T20:15:56.694Z,12.09
2022-09-20T20:18:27.163Z,11.98
2022-09-20T20:20:57.767Z,11.87
2022-09-20T20:23:28.187Z,11.81
2022-09-20T20:25:58.716Z,11.76
2022-09-20T20:28:29.246Z,11.78
2022-09-20T20:31:00.343Z,11.79
2022-09-20T20:33:30.291Z,11.79
2022-09-20T20:36:00.811Z,11.80
2022-09-20T20:38:31.319Z,11.79
2022-09-20T20:41:01.845Z,11.78
2022-09-20T20:43:32.373Z,11.77
2022-09-20T20:46:02.956Z,11.73
2022-09-20T20:48:33.411Z,11.68
2022-09-20T20:51:03.937Z,11.65
2022-09-20T20:53:34.481Z,11.63
2022-09-20T20:56:05.107Z,11.62
2022-09-20T20:58:35.632Z,11.60
2022-09-20T21:01:06.088Z,11.53
2022-09-20T21:03:36.600Z,11.48
2022-09-20T21:06:07.220Z,11.45
2022-09-20T21:08:37.685Z,11.43
2022-09-20T21:11:08.212Z,11.40
2022-09-20T21:13:38.797Z,11.37
2022-09-20T21:16:09.313Z,11.30
2022-09-20T21:18:39.454Z,11.25
2022-09-20T21:21:10.086Z,11.19
2022-09-20T21:23:40.544Z,11.12
2022-09-20T21:26:11.102Z,11.10
2022-09-20T21:28:41.636Z,11.10
2022-09-20T21:31:12.256Z,11.11
2022-09-20T21:33:42.738Z,11.07
2022-09-20T21:36:13.311Z,11.00
2022-09-20T21:38:43.849Z,10.98
2022-09-20T21:41:14.528Z,10.99
2022-09-20T21:43:44.627Z,11.01
2022-09-20T21:46:15.262Z,11.02
2022-09-20T21:48:45.728Z,11.02
2022-09-20T21:51:16.288Z,11.03
2022-09-20T21:53:46.824Z,11.02
2022-09-20T21:56:17.375Z,10.97
2022-09-20T21:58:47.921Z,10.96
2022-09-20T22:01:18.547Z,10.94
2022-09-20T22:03:48.999Z,10.91
2022-09-20T22:06:19.550Z,10.88
2022-09-20T22:08:50.101Z,10.87
2022-09-20T22:11:20.638Z,10.80
2022-09-20T22:13:51.188Z,10.71
2022-09-20T22:16:21.771Z,10.65
2022-09-20T22:18:52.315Z,10.57
2022-09-20T22:21:22.876Z,10.52
2022-09-20T22:23:53.442Z,10.52
2022-09-20T22:26:24.116Z,10.47
2022-09-20T22:28:54.576Z,10.47
2022-09-20T22:31:24.903Z,10.44
2022-09-20T22:33:55.584Z,10.46
2022-09-20T22:36:26.235Z,10.44
2022-09-20T22:38:56.567Z,10.43
2022-09-20T22:41:27.134Z,10.43
2022-09-20T22:43:57.689Z,10.41
2022-09-20T22:46:28.276Z,10.33
2022-09-20T22:48:58.846Z,10.24
2022-09-20T22:51:29.406Z,10.23
2022-09-20T22:53:59.975Z,10.17
2022-09-20T22:56:30.733Z,10.08
2022-09-20T22:59:01.136Z,10.05
2022-09-20T23:01:31.802Z,10.04
2022-09-20T23:04:02.346Z,10.03
2022-09-20T23:06:32.911Z,9.99
2022-09-20T23:09:03.511Z,9.97
2022-09-20T23:11:34.109Z,9.95
2022-09-20T23:14:04.701Z,9.91
2022-09-20T23:16:35.457Z,9.89
2022-09-20T23:19:06.209Z,9.90
2022-09-20T23:21:36.488Z,9.85
2022-09-20T23:24:07.074Z,9.83
2022-09-20T23:26:37.660Z,9.82
2022-09-20T23:29:08.243Z,9.83
2022-09-20T23:31:38.853Z,9.83
2022-09-20T23:34:09.515Z,9.81
2022-09-20T23:36:40.014Z,9.76
2022-09-20T23:39:10.597Z,9.72
2022-09-20T23:41:41.208Z,9.70
2022-09-20T23:44:11.770Z,9.67
2022-09-20T23:46:42.441Z,9.62
2022-09-20T23:49:13.065Z,9.62
2022-09-20T23:51:43.702Z,9.61
2022-09-20T23:54:14.214Z,9.60
2022-09-20T23:56:44.766Z,9.58
2022-09-20T23:59:15.365Z,9.55
